Time,TemperatureF,DewpointF,PressureIn,WindDirection,WindDirectionDegrees,WindSpeedMPH,WindSpeedGustMPH,Humidity,HourlyPrecipIn,Conditions,Clouds,dailyrainin,SolarRadiationWatts/m^2,SoftwareType,DateUTC
2013-03-14 00:11:00,48.0,47.0,-100.00,NNE,15,1.0,4.0,95,0.00,,,0.00,0.000000,,2013-03-14 04:11:00,
2013-03-14 00:33:00,48.0,47.0,-100.00,NNE,15,1.0,4.0,95,0.00,,,0.00,0.000000,,2013-03-14 04:33:00,
2013-03-14 00:42:00,48.0,47.0,-100.00,NNE,15,1.0,4.0,95,0.00,,,0.00,0.000000,,2013-03-14 04:42:00,
2013-03-14 00:53:00,48.0,47.0,-100.00,NNE,15,1.0,4.0,95,0.00,,,0.00,0.000000,,2013-03-14 04:53:00,
2013-03-14 01:02:00,48.0,47.0,-100.00,NNE,15,1.0,4.0,95,0.00,,,0.00,0.000000,,2013-03-14 05:02:00,
2013-03-14 01:11:00,51.0,44.0,-100.00,North,355,1.0,6.0,77,0.00,,,0.00,0.000000,,2013-03-14 05:11:00,
2013-03-14 01:33:00,51.0,44.0,-100.00,North,355,1.0,6.0,77,0.00,,,0.00,0.000000,,2013-03-14 05:33:00,
2013-03-14 01:42:00,51.0,44.0,-100.00,North,355,1.0,6.0,77,0.00,,,0.00,0.000000,,2013-03-14 05:42:00,
2013-03-14 01:53:00,51.0,44.0,-100.00,North,355,1.0,6.0,77,0.00,,,0.00,0.000000,,2013-03-14 05:53:00,
2013-03-14 02:02:00,51.0,44.0,-100.00,North,355,1.0,6.0,77,0.00,,,0.00,0.000000,,2013-03-14 06:02:00,
2013-03-14 02:11:00,45.0,42.0,-100.00,West,260,0.0,4.0,90,0.00,,,0.00,0.000000,,2013-03-14 06:11:00,
2013-03-14 02:33:00,45.0,42.0,-100.00,West,260,0.0,4.0,90,0.00,,,0.00,0.000000,,2013-03-14 06:33:00,
2013-03-14 02:42:00,45.0,42.0,-100.00,West,260,0.0,4.0,90,0.00,,,0.00,0.000000,,2013-03-14 06:42:00,
2013-03-14 02:52:00,45.0,42.0,-100.00,West,260,0.0,4.0,90,0.00,,,0.00,0.000000,,2013-03-14 06:52:00,
2013-03-14 03:02:00,45.0,42.0,-100.00,West,260,0.0,4.0,90,0.00,,,0.00,0.000000,,2013-03-14 07:02:00,
2013-03-14 03:11:00,45.0,43.0,-100.00,WNW,296,0.0,2.0,94,0.00,,,0.00,0.000000,,2013-03-14 07:11:00,
2013-03-14 03:32:00,45.0,43.0,-100.00,WNW,296,0.0,2.0,94,0.00,,,0.00,0.000000,,2013-03-14 07:32:00,
2013-03-14 03:43:00,45.0,43.0,-100.00,WNW,296,0.0,2.0,94,0.00,,,0.00,0.000000,,2013-03-14 07:43:00,
2013-03-14 03:52:00,45.0,43.0,-100.00,WNW,296,0.0,2.0,94,0.00,,,0.00,0.000000,,2013-03-14 07:52:00,
2013-03-14 04:02:00,45.0,43.0,-100.00,WNW,296,0.0,2.0,94,0.00,,,0.00,0.000000,,2013-03-14 08:02:00,
2013-03-14 04:11:00,45.0,43.0,-100.00,NW,311,0.0,2.0,94,0.00,,,0.00,0.000000,,2013-03-14 08:11:00,
2013-03-14 04:42:00,45.0,43.0,-100.00,NW,311,0.0,2.0,94,0.00,,,0.00,0.000000,,2013-03-14 08:42:00,
2013-03-14 04:52:00,45.0,43.0,-100.00,NW,311,0.0,2.0,94,0.00,,,0.00,0.000000,,2013-03-14 08:52:00,
2013-03-14 05:02:00,45.0,43.0,-100.00,NW,311,0.0,2.0,94,0.00,,,0.00,0.000000,,2013-03-14 09:02:00,
2013-03-14 05:11:00,49.0,44.0,-100.00,NNW,333,3.0,7.0,83,0.00,,,0.00,0.000000,,2013-03-14 09:11:00,
2013-03-14 05:32:00,49.0,44.0,-100.00,NNW,333,3.0,7.0,83,0.00,,,0.00,0.000000,,2013-03-14 09:32:00,
2013-03-14 05:42:00,49.0,44.0,-100.00,NNW,333,3.0,7.0,83,0.00,,,0.00,0.000000,,2013-03-14 09:42:00,
2013-03-14 05:52:00,49.0,44.0,-100.00,NNW,333,3.0,7.0,83,0.00,,,0.00,0.000000,,2013-03-14 09:52:00,
2013-03-14 06:02:00,49.0,44.0,-100.00,NNW,333,3.0,7.0,83,0.00,,,0.00,0.000000,,2013-03-14 10:02:00,
2013-03-14 06:11:00,50.0,45.0,-100.00,NNW,332,4.0,10.0,82,0.00,,,0.00,0.000000,,2013-03-14 10:11:00,
2013-03-14 06:32:00,50.0,45.0,-100.00,NNW,332,4.0,10.0,82,0.00,,,0.00,0.000000,,2013-03-14 10:32:00,
2013-03-14 06:42:00,50.0,45.0,-100.00,NNW,332,4.0,10.0,82,0.00,,,0.00,0.000000,,2013-03-14 10:42:00,
2013-03-14 06:52:00,50.0,45.0,-100.00,NNW,332,4.0,10.0,82,0.00,,,0.00,0.000000,,2013-03-14 10:52:00,
2013-03-14 07:02:00,50.0,45.0,-100.00,NNW,332,4.0,10.0,82,0.00,,,0.00,0.000000,,2013-03-14 11:02:00,
2013-03-14 07:11:00,50.0,45.0,-100.00,North,349,4.0,10.0,82,0.00,,,0.00,0.000000,,2013-03-14 11:11:00,
2013-03-14 07:33:00,50.0,45.0,-100.00,North,349,4.0,10.0,82,0.00,,,0.00,0.000000,,2013-03-14 11:33:00,
2013-03-14 07:42:00,50.0,45.0,-100.00,North,349,4.0,10.0,82,0.00,,,0.00,0.000000,,2013-03-14 11:42:00,
2013-03-14 07:53:00,50.0,45.0,-100.00,North,349,4.0,10.0,82,0.00,,,0.00,0.000000,,2013-03-14 11:53:00,
2013-03-14 08:02:00,50.0,45.0,-100.00,North,349,4.0,10.0,82,0.00,,,0.00,0.000000,,2013-03-14 12:02:00,
2013-03-14 08:11:00,50.0,42.0,-100.00,NNW,345,4.0,12.0,73,0.00,,,0.00,8.000000,,2013-03-14 12:11:00,
2013-03-14 08:33:00,50.0,42.0,-100.00,NNW,345,4.0,12.0,73,0.00,,,0.00,8.000000,,2013-03-14 12:33:00,
2013-03-14 08:43:00,50.0,42.0,-100.00,NNW,345,4.0,12.0,73,0.00,,,0.00,8.000000,,2013-03-14 12:43:00,
2013-03-14 08:52:00,50.0,42.0,-100.00,NNW,345,4.0,12.0,73,0.00,,,0.00,8.000000,,2013-03-14 12:52:00,
2013-03-14 09:03:00,50.0,42.0,-100.00,NNW,345,4.0,12.0,73,0.00,,,0.00,8.000000,,2013-03-14 13:03:00,
2013-03-14 09:11:00,55.0,41.0,-100.00,North,354,5.0,13.0,59,0.00,,,0.00,141.000000,,2013-03-14 13:11:00,
2013-03-14 09:32:00,55.0,41.0,-100.00,North,354,5.0,13.0,59,0.00,,,0.00,141.000000,,2013-03-14 13:32:00,
2013-03-14 09:43:00,55.0,41.0,-100.00,North,354,5.0,13.0,59,0.00,,,0.00,141.000000,,2013-03-14 13:43:00,
2013-03-14 09:52:00,55.0,41.0,-100.00,North,354,5.0,13.0,59,0.00,,,0.00,141.000000,,2013-03-14 13:52:00,
2013-03-14 10:02:00,55.0,41.0,-100.00,North,354,5.0,13.0,59,0.00,,,0.00,141.000000,,2013-03-14 14:02:00,
2013-03-14 10:11:00,60.0,37.0,-100.00,North,353,4.0,15.0,42,0.00,,,0.00,408.000000,,2013-03-14 14:11:00,
2013-03-14 10:43:00,60.0,37.0,-100.00,North,353,4.0,15.0,42,0.00,,,0.00,408.000000,,2013-03-14 14:43:00,
2013-03-14 10:53:00,60.0,37.0,-100.00,North,353,4.0,15.0,42,0.00,,,0.00,408.000000,,2013-03-14 14:53:00,
2013-03-14 11:02:00,60.0,37.0,-100.00,North,353,4.0,15.0,42,0.00,,,0.00,408.000000,,2013-03-14 15:02:00,
2013-03-14 11:11:00,63.0,33.0,-100.00,North,354,6.0,14.0,33,0.00,,,0.00,611.000000,,2013-03-14 15:11:00,
2013-03-14 11:33:00,63.0,33.0,-100.00,North,354,6.0,14.0,33,0.00,,,0.00,611.000000,,2013-03-14 15:33:00,
2013-03-14 11:43:00,63.0,33.0,-100.00,North,354,6.0,14.0,33,0.00,,,0.00,611.000000,,2013-03-14 15:43:00,
2013-03-14 11:52:00,63.0,33.0,-100.00,North,354,6.0,14.0,33,0.00,,,0.00,611.000000,,2013-03-14 15:52:00,
2013-03-14 12:03:00,63.0,33.0,-100.00,North,354,6.0,14.0,33,0.00,,,0.00,611.000000,,2013-03-14 16:03:00,
2013-03-14 12:11:00,67.0,34.0,-100.00,North,8,5.0,15.0,29,0.00,,,0.00,766.000000,,2013-03-14 16:11:00,
2013-03-14 12:33:00,67.0,34.0,-100.00,North,8,5.0,15.0,29,0.00,,,0.00,766.000000,,2013-03-14 16:33:00,
2013-03-14 12:42:00,67.0,34.0,-100.00,North,8,5.0,15.0,29,0.00,,,0.00,766.000000,,2013-03-14 16:42:00,
2013-03-14 12:52:00,67.0,34.0,-100.00,North,8,5.0,15.0,29,0.00,,,0.00,766.000000,,2013-03-14 16:52:00,
2013-03-14 13:02:00,67.0,34.0,-100.00,North,8,5.0,15.0,29,0.00,,,0.00,766.000000,,2013-03-14 17:02:00,
2013-03-14 13:11:00,69.0,30.0,-100.00,NNW,345,5.0,11.0,23,0.00,,,0.00,859.000000,,2013-03-14 17:11:00,
2013-03-14 13:33:00,69.0,30.0,-100.00,NNW,345,5.0,11.0,23,0.00,,,0.00,859.000000,,2013-03-14 17:33:00,
2013-03-14 13:42:00,69.0,30.0,-100.00,NNW,345,5.0,11.0,23,0.00,,,0.00,859.000000,,2013-03-14 17:42:00,
2013-03-14 13:53:00,69.0,30.0,-100.00,NNW,345,5.0,11.0,23,0.00,,,0.00,859.000000,,2013-03-14 17:53:00,
2013-03-14 14:03:00,69.0,30.0,-100.00,NNW,345,5.0,11.0,23,0.00,,,0.00,859.000000,,2013-03-14 18:03:00,
2013-03-14 14:11:00,71.0,29.0,-100.00,North,353,5.0,12.0,21,0.00,,,0.00,866.000000,,2013-03-14 18:11:00,
2013-03-14 14:33:00,71.0,29.0,-100.00,North,353,5.0,12.0,21,0.00,,,0.00,866.000000,,2013-03-14 18:33:00,
2013-03-14 14:43:00,71.0,29.0,-100.00,North,353,5.0,12.0,21,0.00,,,0.00,866.000000,,2013-03-14 18:43:00,
2013-03-14 14:53:00,71.0,29.0,-100.00,North,353,5.0,12.0,21,0.00,,,0.00,866.000000,,2013-03-14 18:53:00,
2013-03-14 15:03:00,71.0,29.0,-100.00,North,353,5.0,12.0,21,0.00,,,0.00,866.000000,,2013-03-14 19:03:00,
2013-03-14 16:11:00,75.0,27.0,-100.00,NW,322,5.0,12.0,17,-99.99,,,0.00,710.000000,,2013-03-14 20:11:00,
2013-03-14 16:42:00,75.0,27.0,-100.00,NW,322,5.0,12.0,17,-99.99,,,0.00,710.000000,,2013-03-14 20:42:00,
2013-03-14 16:52:00,75.0,27.0,-100.00,NW,322,5.0,12.0,17,-99.99,,,0.00,710.000000,,2013-03-14 20:52:00,
2013-03-14 17:03:00,75.0,27.0,-100.00,NW,322,5.0,12.0,17,-99.99,,,0.00,710.000000,,2013-03-14 21:03:00,
2013-03-14 17:11:00,75.0,27.0,-100.00,NNW,339,5.0,12.0,17,0.00,,,0.00,567.000000,,2013-03-14 21:11:00,
2013-03-14 17:43:00,75.0,27.0,-100.00,NNW,339,5.0,12.0,17,0.00,,,0.00,567.000000,,2013-03-14 21:43:00,
2013-03-14 17:53:00,75.0,27.0,-100.00,NNW,339,5.0,12.0,17,0.00,,,0.00,567.000000,,2013-03-14 21:53:00,
2013-03-14 18:04:00,75.0,27.0,-100.00,NNW,339,5.0,12.0,17,0.00,,,0.00,567.000000,,2013-03-14 22:04:00,
2013-03-14 18:11:00,74.0,26.0,-100.00,North,355,4.0,10.0,17,0.00,,,0.00,348.000000,,2013-03-14 22:11:00,
2013-03-14 18:42:00,74.0,26.0,-100.00,North,355,4.0,10.0,17,0.00,,,0.00,348.000000,,2013-03-14 22:42:00,
2013-03-14 18:53:00,74.0,26.0,-100.00,North,355,4.0,10.0,17,0.00,,,0.00,348.000000,,2013-03-14 22:53:00,
2013-03-14 19:03:00,74.0,26.0,-100.00,North,355,4.0,10.0,17,0.00,,,0.00,348.000000,,2013-03-14 23:03:00,
2013-03-14 19:11:00,66.0,34.0,-100.00,NNE,16,1.0,6.0,31,0.00,,,0.00,124.000000,,2013-03-14 23:11:00,
2013-03-14 19:33:00,66.0,34.0,-100.00,NNE,16,1.0,6.0,31,0.00,,,0.00,124.000000,,2013-03-14 23:33:00,
2013-03-14 19:43:00,66.0,34.0,-100.00,NNE,16,1.0,6.0,31,0.00,,,0.00,124.000000,,2013-03-14 23:43:00,
2013-03-14 19:54:00,66.0,34.0,-100.00,NNE,16,1.0,6.0,31,0.00,,,0.00,124.000000,,2013-03-14 23:54:00,
2013-03-14 20:02:00,66.0,34.0,-100.00,NNE,16,1.0,6.0,31,0.00,,,0.00,124.000000,,2013-03-15 00:02:00,
2013-03-14 20:11:00,55.0,43.0,-100.00,SE,135,2.0,3.0,65,0.00,,,0.00,7.000000,,2013-03-15 00:11:00,
2013-03-14 20:33:00,55.0,43.0,-100.00,SE,135,2.0,3.0,65,0.00,,,0.00,7.000000,,2013-03-15 00:33:00,
2013-03-14 20:43:00,55.0,43.0,-100.00,SE,135,2.0,3.0,65,0.00,,,0.00,7.000000,,2013-03-15 00:43:00,
2013-03-14 20:52:00,55.0,43.0,-100.00,SE,135,2.0,3.0,65,0.00,,,0.00,7.000000,,2013-03-15 00:52:00,
2013-03-14 21:02:00,55.0,43.0,-100.00,SE,135,2.0,3.0,65,0.00,,,0.00,7.000000,,2013-03-15 01:02:00,
2013-03-14 21:11:00,48.0,43.0,-100.00,NE,39,0.0,2.0,83,0.00,,,0.00,0.000000,,2013-03-15 01:11:00,
2013-03-14 21:33:00,48.0,43.0,-100.00,NE,39,0.0,2.0,83,0.00,,,0.00,0.000000,,2013-03-15 01:33:00,
2013-03-14 21:43:00,48.0,43.0,-100.00,NE,39,0.0,2.0,83,0.00,,,0.00,0.000000,,2013-03-15 01:43:00,
2013-03-14 21:52:00,48.0,43.0,-100.00,NE,39,0.0,2.0,83,0.00,,,0.00,0.000000,,2013-03-15 01:52:00,
2013-03-14 22:03:00,48.0,43.0,-100.00,NE,39,0.0,2.0,83,0.00,,,0.00,0.000000,,2013-03-15 02:03:00,
2013-03-14 22:11:00,45.0,42.0,-100.00,SSE,154,1.0,3.0,89,0.00,,,0.00,0.000000,,2013-03-15 02:11:00,
2013-03-14 22:32:00,45.0,42.0,-100.00,SSE,154,1.0,3.0,89,0.00,,,0.00,0.000000,,2013-03-15 02:32:00,
2013-03-14 22:42:00,45.0,42.0,-100.00,SSE,154,1.0,3.0,89,0.00,,,0.00,0.000000,,2013-03-15 02:42:00,
2013-03-14 22:52:00,45.0,42.0,-100.00,SSE,154,1.0,3.0,89,0.00,,,0.00,0.000000,,2013-03-15 02:52:00,
2013-03-14 23:02:00,45.0,42.0,-100.00,SSE,154,1.0,3.0,89,0.00,,,0.00,0.000000,,2013-03-15 03:02:00,
2013-03-14 23:11:00,44.0,42.0,-100.00,North,3,1.0,4.0,91,0.00,,,0.00,0.000000,,2013-03-15 03:11:00,
2013-03-14 23:33:00,44.0,42.0,-100.00,North,3,1.0,4.0,91,0.00,,,0.00,0.000000,,2013-03-15 03:33:00,
2013-03-14 23:43:00,44.0,42.0,-100.00,North,3,1.0,4.0,91,0.00,,,0.00,0.000000,,2013-03-15 03:43:00,
2013-03-14 23:53:00,44.0,42.0,-100.00,North,3,1.0,4.0,91,0.00,,,0.00,0.000000,,2013-03-15 03:53:00,